Skip Navigation LinksHome page > Weather > Current weather Skip Navigation Links

Current Weather

Moundou, Chad

For information only: do not use for flight planning or navigation.
Latest weather
Observation time Friday, December 19, 2014 4:00 PM WAT
Local time Friday, December 19, 2014 7:14 PM WAT
Flight conditions Visual Meteorological Conditions
Winds
Wind direction North-Northwest (340°)
Wind speed 9 mph
Visibility 6.2 mi.
Sky condition
Ceiling unlimited
Sky clear
Temperature 91°F
Dewpoint 28°F
Altimeter 29.88 in.Hg
Derived measurements
Relative humidity 11%
Heat index 91°F
Density altitude 2607 ft.
Remarks
Ceiling and visibility OK.
METAR FTTD 191500Z 34008KT CAVOK 33/M02 Q1012

Settings

Location code

InnerDrive.Weather 4.0.5399.0 Release CLR 4.0.30319.34014
Copyright ©2014 Inner Drive Technology. All rights reserved. Portions Copyright ©1986-2014 David Braverman.

Find weather

Site navigation


Skip Navigation Links

Place info

Page info

PayPal - The safer, easier way to pay online!

Return home.

Copyright ©2014 Inner Drive Technology. Purveyors of fine, hand-crafted computer software. Page printed 2014-12-19T18:14:34 UTC.